Time;durP1;ratioP1;P1;durP2;ratioP2;P2;SDS_P1;SDS_P2;PMS_P1;PMS_P2;Temp;Humidity;BMP_temperature;BMP_pressure;BME280_temperature;BME280_humidity;BME280_pressure;Samples;Min_cycle;Max_cycle;Signal;HPM_P1;HPM_P2
2022/08/01 00:00:21;;;;;;;5.78;2.03;;;18.30;99.90;;;;;;5055166;28;20041;-76
2022/08/01 00:02:47;;;;;;;5.05;2.20;;;18.30;99.90;;;;;;5054913;28;20049;-76
2022/08/01 00:05:13;;;;;;;5.05;2.47;;;18.30;99.90;;;;;;5054773;28;20045;-76
2022/08/01 00:07:38;;;;;;;6.25;2.45;;;18.30;99.90;;;;;;5055902;28;20388;-76
2022/08/01 00:10:10;;;;;;;5.80;2.92;;;18.20;99.90;;;;;;5055815;28;20396;-76
2022/08/01 00:12:37;;;;;;;7.10;2.47;;;18.30;99.90;;;;;;5056057;28;20056;-76
2022/08/01 00:15:05;;;;;;;6.85;2.50;;;18.30;99.90;;;;;;5056211;28;20044;-76
2022/08/01 00:17:31;;;;;;;4.35;2.33;;;18.20;99.90;;;;;;5054908;28;20044;-76
2022/08/01 00:19:56;;;;;;;5.30;2.85;;;18.20;99.90;;;;;;5054354;28;20051;-76
2022/08/01 00:22:22;;;;;;;5.00;2.60;;;18.20;99.90;;;;;;5055836;28;20041;-76
2022/08/01 00:24:48;;;;;;;7.63;2.92;;;18.20;99.90;;;;;;5055560;28;20140;-76
2022/08/01 00:27:13;;;;;;;7.32;3.10;;;18.20;99.90;;;;;;5054387;28;20132;-76
2022/08/01 00:29:39;;;;;;;8.88;2.90;;;18.20;99.90;;;;;;5054287;28;20140;-76
2022/08/01 00:32:05;;;;;;;5.28;1.75;;;18.20;99.90;;;;;;5054577;28;20079;-76
2022/08/01 00:34:30;;;;;;;2.97;1.05;;;18.20;99.90;;;;;;5054571;28;20056;-76
2022/08/01 00:36:56;;;;;;;5.57;1.67;;;18.20;99.90;;;;;;5053919;28;20115;-76
2022/08/01 00:39:22;;;;;;;4.95;1.85;;;18.10;99.90;;;;;;5054118;28;20049;-76
2022/08/01 00:41:47;;;;;;;5.57;1.70;;;18.10;99.90;;;;;;5054401;28;20091;-77
2022/08/01 00:44:13;;;;;;;3.63;1.30;;;18.00;99.90;;;;;;5055331;28;20045;-76
2022/08/01 00:46:39;;;;;;;5.07;1.80;;;18.10;99.90;;;;;;5055399;28;20408;-76
2022/08/01 00:49:04;;;;;;;3.70;1.65;;;18.00;99.90;;;;;;5055310;28;20045;-76
2022/08/01 00:51:30;;;;;;;3.50;1.50;;;18.00;99.90;;;;;;5055290;28;20040;-76
2022/08/01 00:53:56;;;;;;;5.55;1.33;;;17.90;99.90;;;;;;5055277;28;20427;-76
2022/08/01 00:56:24;;;;;;;5.38;1.65;;;18.00;99.90;;;;;;5053817;28;20040;-76
2022/08/01 00:58:50;;;;;;;6.65;2.00;;;17.90;99.90;;;;;;5054130;28;20103;-76
2022/08/01 01:01:17;;;;;;;7.63;2.17;;;17.80;99.90;;;;;;5055053;28;20056;-76
2022/08/01 01:03:43;;;;;;;8.10;2.28;;;17.80;99.90;;;;;;5054948;28;20045;-78
2022/08/01 01:06:44;;;;;;;9.55;2.47;;;17.80;99.90;;;;;;5053560;28;20044;-76
2022/08/01 01:09:47;;;;;;;9.68;2.67;;;17.80;99.90;;;;;;5054874;28;20045;-76
2022/08/01 01:12:19;;;;;;;;;;;17.80;99.90;;;;;;5055046;28;20127;-77
2022/08/01 01:14:52;;;;;;;7.03;1.95;;;17.80;99.90;;;;;;5053744;28;19964;-77
2022/08/01 01:17:24;;;;;;;5.90;1.95;;;17.80;99.90;;;;;;5053478;28;20502;-76
2022/08/01 01:19:53;;;;;;;6.82;2.35;;;17.70;99.90;;;;;;5053518;28;20044;-76
2022/08/01 01:22:32;;;;;;;6.68;2.50;;;17.70;99.90;;;;;;5053690;28;20049;-77
2022/08/01 01:25:16;;;;;;;11.52;3.15;;;17.70;99.90;;;;;;5053209;28;20041;-76
2022/08/01 01:27:47;;;;;;;11.73;3.72;;;17.70;99.90;;;;;;5054566;28;20476;-77
2022/08/01 01:30:13;;;;;;;10.13;2.92;;;17.80;99.90;;;;;;5054560;28;20084;-77
2022/08/01 01:32:43;;;;;;;10.30;2.78;;;17.80;99.90;;;;;;5053190;28;20053;-76
2022/08/01 01:35:15;;;;;;;8.75;2.83;;;17.70;99.90;;;;;;5053260;28;20063;-77
2022/08/01 01:37:44;;;;;;;8.95;2.78;;;17.70;99.90;;;;;;5053056;28;20048;-77
2022/08/01 01:40:11;;;;;;;9.10;2.83;;;17.70;99.90;;;;;;5054376;28;20045;-76
2022/08/01 01:42:38;;;;;;;11.32;3.05;;;17.60;99.90;;;;;;5053006;28;20060;-76
2022/08/01 01:45:05;;;;;;;8.77;2.70;;;17.50;99.90;;;;;;5054209;28;20072;-77
2022/08/01 01:47:32;;;;;;;10.10;3.45;;;17.50;99.90;;;;;;5054170;28;20044;-77
2022/08/01 01:49:59;;;;;;;11.40;3.05;;;17.40;99.90;;;;;;5053616;28;20052;-76
2022/08/01 01:52:27;;;;;;;10.02;3.13;;;17.50;99.90;;;;;;5054185;28;20041;-76
2022/08/01 01:54:55;;;;;;;12.55;3.67;;;17.50;99.90;;;;;;5053027;28;20060;-76
2022/08/01 01:57:21;;;;;;;11.50;3.08;;;17.40;99.90;;;;;;5052757;28;20438;-77
2022/08/01 01:59:49;;;;;;;11.85;3.17;;;17.40;99.90;;;;;;5052955;28;20068;-76
2022/08/01 02:02:17;;;;;;;11.45;3.25;;;17.40;99.90;;;;;;5054035;28;20052;-76
2022/08/01 02:04:45;;;;;;;10.13;3.47;;;17.40;99.90;;;;;;5054091;28;20507;-77
2022/08/01 02:07:14;;;;;;;13.13;3.85;;;17.40;99.90;;;;;;5052818;28;20049;-76
2022/08/01 02:09:42;;;;;;;11.55;3.42;;;17.30;99.90;;;;;;5053844;28;20179;-76
2022/08/01 02:12:11;;;;;;;10.27;3.70;;;17.40;99.90;;;;;;5052557;28;20049;-76
2022/08/01 02:14:39;;;;;;;12.02;3.45;;;17.40;99.90;;;;;;5052797;28;20130;-77
2022/08/01 02:17:06;;;;;;;8.57;4.13;;;17.30;99.90;;;;;;5053636;28;20155;-77
2022/08/01 02:19:33;;;;;;;11.30;3.65;;;17.40;99.90;;;;;;5052689;28;20052;-77
2022/08/01 02:22:10;;;;;;;13.15;3.45;;;17.40;99.90;;;;;;5053775;28;20044;-76
2022/08/01 02:24:44;;;;;;;11.55;3.17;;;17.30;99.90;;;;;;5053682;28;20080;-77
2022/08/01 02:27:14;;;;;;;16.83;3.60;;;17.30;99.90;;;;;;5054160;28;20052;-77
2022/08/01 02:29:53;;;;;;;15.02;3.58;;;17.30;99.90;;;;;;5053421;28;20060;-76
2022/08/01 02:32:44;;;;;;;13.70;3.38;;;17.40;99.90;;;;;;5052332;28;20041;-76
2022/08/01 02:35:14;;;;;;;11.80;3.05;;;17.30;99.90;;;;;;5053661;28;20041;-76
2022/08/01 02:37:42;;;;;;;13.70;2.88;;;17.20;99.90;;;;;;5054069;28;20053;-76
2022/08/01 02:40:10;;;;;;;15.48;3.88;;;17.20;99.90;;;;;;5053359;28;20384;-76
2022/08/01 02:42:38;;;;;;;19.65;3.90;;;17.20;99.90;;;;;;5052155;28;20124;-76
2022/08/01 02:45:08;;;;;;;14.32;4.32;;;17.20;99.90;;;;;;5053404;28;20041;-76
2022/08/01 02:47:35;;;;;;;13.25;3.28;;;17.20;99.90;;;;;;5052479;28;20090;-76
2022/08/01 02:50:02;;;;;;;15.80;4.20;;;17.10;99.90;;;;;;5053443;28;20045;-76
2022/08/01 02:52:31;;;;;;;15.07;3.78;;;17.10;99.90;;;;;;5053457;28;20076;-76
2022/08/01 02:54:58;;;;;;;14.85;3.75;;;17.10;99.90;;;;;;5052050;28;20132;-77
2022/08/01 02:57:26;;;;;;;17.95;3.85;;;17.10;99.90;;;;;;5053449;28;20115;-76
2022/08/01 02:59:53;;;;;;;9.45;2.83;;;17.10;99.90;;;;;;5052361;28;20049;-76
2022/08/01 03:02:21;;;;;;;20.35;4.00;;;17.10;99.90;;;;;;5056229;28;20041;-77
2022/08/01 03:04:48;;;;;;;12.93;3.00;;;17.00;99.90;;;;;;5055868;28;20049;-76
2022/08/01 03:07:15;;;;;;;12.68;3.50;;;17.00;99.90;;;;;;5056091;28;20059;-76
2022/08/01 03:09:43;;;;;;;14.13;3.30;;;17.00;99.90;;;;;;5057111;28;20092;-76
2022/08/01 03:12:15;;;;;;;19.05;3.13;;;17.00;99.90;;;;;;5056149;28;20037;-76
2022/08/01 03:14:43;;;;;;;16.85;3.95;;;16.90;99.90;;;;;;5057102;28;20393;-76
2022/08/01 03:17:09;;;;;;;16.27;3.72;;;16.80;99.90;;;;;;5057076;28;20059;-76
2022/08/01 03:19:37;;;;;;;21.02;4.50;;;16.80;99.90;;;;;;5056936;28;20045;-77
2022/08/01 03:22:07;;;;;;;15.80;3.92;;;16.90;99.90;;;;;;5057009;28;20115;-76
2022/08/01 03:24:35;;;;;;;12.45;3.42;;;16.80;99.90;;;;;;5055703;28;20097;-76
2022/08/01 03:27:03;;;;;;;14.75;3.70;;;16.80;99.90;;;;;;5056814;28;20088;-76
2022/08/01 03:29:31;;;;;;;17.08;3.63;;;16.80;99.90;;;;;;5055158;28;20057;-76
2022/08/01 03:31:59;;;;;;;19.42;3.80;;;16.80;99.90;;;;;;5055404;28;20124;-76
2022/08/01 03:34:27;;;;;;;16.40;4.40;;;16.80;99.90;;;;;;5057115;28;20036;-76
2022/08/01 03:37:25;;;;;;;17.58;4.15;;;16.80;99.90;;;;;;5055396;28;20055;-76
2022/08/01 03:40:12;;;;;;;17.98;3.58;;;16.70;99.90;;;;;;5056212;28;20048;-76
2022/08/01 03:42:44;;;;;;;17.85;3.40;;;16.60;99.90;;;;;;5055734;28;20091;-76
2022/08/01 03:45:14;;;;;;;14.43;3.60;;;16.50;99.90;;;;;;5053469;28;20483;-76
2022/08/01 03:47:43;;;;;;;22.38;4.00;;;16.60;99.90;;;;;;5055798;28;20052;-76
2022/08/01 03:50:13;;;;;;;15.85;4.15;;;16.60;99.90;;;;;;5055238;28;20442;-76
2022/08/01 03:52:43;;;;;;;17.25;3.55;;;16.50;99.90;;;;;;5056402;28;20052;-76
2022/08/01 03:55:11;;;;;;;14.07;4.00;;;16.50;99.90;;;;;;5056004;28;20499;-76
2022/08/01 03:57:37;;;;;;;15.00;3.08;;;16.50;99.90;;;;;;5056073;28;20068;-76
2022/08/01 04:00:09;;;;;;;15.68;3.00;;;16.40;99.90;;;;;;5054858;28;20045;-76
2022/08/01 04:02:35;;;;;;;16.95;2.90;;;16.40;99.90;;;;;;5056184;28;20041;-76
2022/08/01 04:05:01;;;;;;;13.80;3.42;;;16.40;99.90;;;;;;5054892;28;20041;-76
2022/08/01 04:07:29;;;;;;;16.77;3.50;;;16.40;99.90;;;;;;5054892;28;20049;-76
2022/08/01 04:09:55;;;;;;;15.07;3.75;;;16.40;99.90;;;;;;5056021;28;20102;-76
2022/08/01 04:12:21;;;;;;;16.33;3.58;;;16.40;99.90;;;;;;5054022;28;20041;-76
2022/08/01 04:14:47;;;;;;;20.90;4.05;;;16.40;99.90;;;;;;5054421;28;20057;-76
2022/08/01 04:17:13;;;;;;;15.85;3.60;;;16.30;99.90;;;;;;5055604;28;20045;-76
2022/08/01 04:19:38;;;;;;;14.27;3.45;;;16.40;99.90;;;;;;5055891;28;20099;-76
2022/08/01 04:22:05;;;;;;;15.70;5.07;;;16.40;99.90;;;;;;5055855;28;20051;-76
2022/08/01 04:24:36;;;;;;;13.60;3.60;;;16.40;99.90;;;;;;5055775;28;20060;-76
2022/08/01 04:27:03;;;;;;;19.50;3.63;;;16.30;99.90;;;;;;5054470;28;20045;-76
2022/08/01 04:29:31;;;;;;;14.90;3.65;;;16.40;99.90;;;;;;5054004;28;20443;-76
2022/08/01 04:32:00;;;;;;;15.82;4.05;;;16.40;99.90;;;;;;5054386;28;20059;-76
2022/08/01 04:34:30;;;;;;;10.88;3.55;;;16.40;99.90;;;;;;5055098;28;20048;-76
2022/08/01 04:36:57;;;;;;;15.75;3.17;;;16.40;99.90;;;;;;5054348;28;20045;-77
2022/08/01 04:39:30;;;;;;;14.30;3.17;;;16.40;99.90;;;;;;5053990;28;20041;-76
2022/08/01 04:41:58;;;;;;;13.35;4.05;;;16.40;99.90;;;;;;5053994;28;20056;-77
2022/08/01 04:44:24;;;;;;;21.42;4.25;;;16.40;99.90;;;;;;5053854;28;20041;-76
2022/08/01 04:46:50;;;;;;;15.82;3.25;;;16.40;99.90;;;;;;5053855;28;20052;-77
2022/08/01 04:49:16;;;;;;;18.98;4.10;;;16.40;99.90;;;;;;5055041;28;20045;-77
2022/08/01 04:51:57;;;;;;;21.83;3.85;;;16.40;99.90;;;;;;5053780;28;20053;-77
2022/08/01 04:54:24;;;;;;;14.57;4.22;;;16.40;99.90;;;;;;5055256;28;20077;-77
2022/08/01 04:56:50;;;;;;;17.92;3.75;;;16.40;99.90;;;;;;5054951;28;20052;-77
2022/08/01 05:02:00;;;;;;;14.85;3.25;;;16.40;99.90;;;;;;5055023;28;20151;-77
2022/08/01 05:04:26;;;;;;;15.10;3.95;;;16.40;99.90;;;;;;5054852;28;20077;-77
2022/08/01 05:06:52;;;;;;;14.85;4.07;;;16.40;99.90;;;;;;5054818;28;20065;-77
2022/08/01 05:09:17;;;;;;;15.13;3.45;;;16.40;99.90;;;;;;5053322;28;20127;-77
2022/08/01 05:11:43;;;;;;;16.10;3.50;;;16.40;99.90;;;;;;5054532;28;20554;-77
2022/08/01 05:14:09;;;;;;;14.13;3.17;;;16.40;99.90;;;;;;5053379;28;20106;-76
2022/08/01 05:16:34;;;;;;;16.70;3.25;;;16.40;99.90;;;;;;5053306;28;20048;-77
2022/08/01 05:19:02;;;;;;;12.00;3.33;;;16.40;99.90;;;;;;5054376;28;20052;-77
2022/08/01 05:21:27;;;;;;;13.27;4.30;;;16.40;99.90;;;;;;5053230;28;20091;-76
2022/08/01 05:23:53;;;;;;;15.18;3.20;;;16.40;99.90;;;;;;5052336;28;20045;-77
2022/08/01 05:26:19;;;;;;;17.05;3.50;;;16.40;99.90;;;;;;5053036;28;20459;-77
2022/08/01 05:28:44;;;;;;;11.85;3.08;;;16.40;99.90;;;;;;5052934;28;20132;-77
2022/08/01 05:31:10;;;;;;;13.73;3.47;;;16.40;99.90;;;;;;5053046;28;20052;-77
2022/08/01 05:33:36;;;;;;;12.32;2.90;;;16.50;99.90;;;;;;5054423;28;20040;-77
2022/08/01 05:36:01;;;;;;;17.38;2.97;;;16.40;99.90;;;;;;5054415;28;20041;-77
2022/08/01 05:38:27;;;;;;;14.00;3.03;;;16.40;99.90;;;;;;5054297;28;20048;-77
2022/08/01 05:40:52;;;;;;;11.63;2.75;;;16.40;99.90;;;;;;5053157;28;20381;-77
2022/08/01 05:43:18;;;;;;;12.45;3.60;;;16.40;99.90;;;;;;5053059;28;20456;-77
2022/08/01 05:45:45;;;;;;;9.73;3.00;;;16.40;99.90;;;;;;5054233;28;20128;-77
2022/08/01 05:48:11;;;;;;;16.35;3.35;;;16.40;99.90;;;;;;5054193;28;20084;-77
2022/08/01 05:50:37;;;;;;;16.17;3.45;;;16.40;99.90;;;;;;5052618;28;20072;-77
2022/08/01 05:53:03;;;;;;;10.45;3.10;;;16.40;99.90;;;;;;5052574;28;20072;-77
2022/08/01 05:55:28;;;;;;;13.95;3.05;;;16.40;99.90;;;;;;5054014;28;20041;-77
2022/08/01 05:57:54;;;;;;;13.40;3.20;;;16.50;99.90;;;;;;5053826;28;20047;-76
2022/08/01 06:00:20;;;;;;;6.85;2.40;;;16.50;99.90;;;;;;5052510;28;20041;-77
2022/08/01 06:02:46;;;;;;;9.55;2.65;;;16.50;99.90;;;;;;5053830;28;20045;-76
2022/08/01 06:05:11;;;;;;;8.00;2.53;;;16.50;99.90;;;;;;5053657;28;20067;-77
2022/08/01 06:07:38;;;;;;;17.92;3.13;;;16.50;99.90;;;;;;5052391;28;20036;-77
2022/08/01 06:10:04;;;;;;;15.15;3.13;;;16.60;99.90;;;;;;5053833;28;20044;-77
2022/08/01 06:12:33;;;;;;;13.30;2.85;;;16.70;99.90;;;;;;5053501;28;20450;-77
2022/08/01 06:14:58;;;;;;;11.00;2.50;;;16.80;99.90;;;;;;5053765;28;20049;-78
2022/08/01 06:17:24;;;;;;;12.77;2.83;;;16.80;99.90;;;;;;5052364;28;20041;-78
2022/08/01 06:19:49;;;;;;;11.63;2.90;;;16.80;99.90;;;;;;5053594;28;20549;-77
2022/08/01 06:22:15;;;;;;;15.75;2.88;;;16.80;99.90;;;;;;5053637;28;20037;-77
2022/08/01 06:24:41;;;;;;;13.18;2.60;;;17.00;99.90;;;;;;5053585;28;20419;-77
2022/08/01 06:27:06;;;;;;;12.05;2.65;;;17.00;99.90;;;;;;5053707;28;20123;-77
2022/08/01 06:29:32;;;;;;;16.75;2.47;;;17.10;99.90;;;;;;5053397;28;20140;-77
2022/08/01 06:31:58;;;;;;;15.48;2.85;;;17.30;99.90;;;;;;5053605;28;20140;-76
2022/08/01 06:34:24;;;;;;;10.43;2.20;;;17.50;99.90;;;;;;5051997;28;20048;-78
2022/08/01 06:36:49;;;;;;;12.80;2.17;;;17.60;99.90;;;;;;5046254;28;20047;-76
2022/08/01 06:39:15;;;;;;;9.77;2.42;;;17.60;99.90;;;;;;5039146;28;20090;-75
2022/08/01 06:41:45;;;;;;;9.85;2.33;;;17.70;99.90;;;;;;5033321;28;20053;-76
2022/08/01 06:44:12;;;;;;;10.00;2.22;;;17.80;99.90;;;;;;5031843;28;20128;-76
2022/08/01 06:46:37;;;;;;;10.32;2.92;;;18.00;99.90;;;;;;5032049;28;20091;-76
2022/08/01 06:49:03;;;;;;;11.73;2.25;;;18.10;99.90;;;;;;5032214;28;20081;-76
2022/08/01 06:51:29;;;;;;;12.95;2.88;;;18.20;99.90;;;;;;5031724;28;20555;-77
2022/08/01 06:53:55;;;;;;;15.30;2.97;;;18.40;99.90;;;;;;5032053;28;20080;-76
2022/08/01 06:56:20;;;;;;;17.90;2.92;;;18.50;99.90;;;;;;5033094;28;20037;-76
2022/08/01 06:58:46;;;;;;;9.45;2.53;;;18.70;99.90;;;;;;5032916;28;20085;-76
2022/08/01 07:01:12;;;;;;;10.82;2.78;;;18.70;99.90;;;;;;5032972;28;20041;-76
2022/08/01 07:03:38;;;;;;;8.48;1.63;;;18.60;99.90;;;;;;5033163;28;20120;-76
2022/08/01 07:06:03;;;;;;;9.30;2.15;;;18.60;99.90;;;;;;5032843;28;20373;-76
2022/08/01 07:08:29;;;;;;;11.10;2.10;;;18.60;99.90;;;;;;5031660;28;20204;-76
2022/08/01 07:10:58;;;;;;;7.78;1.60;;;18.70;99.90;;;;;;5031727;28;20053;-76
2022/08/01 07:13:27;;;;;;;9.77;2.55;;;18.90;99.90;;;;;;5032821;28;20052;-76
2022/08/01 07:15:53;;;;;;;7.93;2.65;;;19.00;99.90;;;;;;5033140;28;20049;-76
2022/08/01 07:18:19;;;;;;;13.00;2.00;;;19.00;99.90;;;;;;5031534;28;20053;-76
2022/08/01 07:20:46;;;;;;;7.15;1.75;;;19.10;99.90;;;;;;5032670;28;20045;-75
2022/08/01 07:23:15;;;;;;;12.23;2.15;;;19.20;99.90;;;;;;5031746;28;20081;-77
2022/08/01 07:25:40;;;;;;;12.75;2.00;;;19.30;99.90;;;;;;5031481;28;20042;-77
2022/08/01 07:28:06;;;;;;;11.82;1.92;;;19.20;99.90;;;;;;5031215;28;20055;-78
2022/08/01 07:30:32;;;;;;;9.38;1.80;;;19.20;99.90;;;;;;5032814;28;20049;-77
2022/08/01 07:32:57;;;;;;;12.55;2.10;;;19.10;99.90;;;;;;5032685;28;20400;-78
2022/08/01 07:35:23;;;;;;;15.48;2.70;;;19.30;99.90;;;;;;5034623;28;20476;-77
2022/08/01 07:37:49;;;;;;;12.13;2.22;;;19.40;99.90;;;;;;5051108;28;20041;-77
2022/08/01 07:40:15;;;;;;;9.63;1.83;;;19.60;99.90;;;;;;5052430;28;20037;-76
2022/08/01 07:42:43;;;;;;;10.02;1.85;;;19.80;99.90;;;;;;5051292;28;20047;-77
2022/08/01 07:45:10;;;;;;;13.77;1.80;;;19.90;99.90;;;;;;5051098;28;20389;-77
2022/08/01 07:47:36;;;;;;;14.00;2.67;;;19.80;99.90;;;;;;5052401;28;20053;-77
2022/08/01 07:50:03;;;;;;;8.07;2.38;;;19.80;99.90;;;;;;5054718;28;20053;-77
2022/08/01 07:52:30;;;;;;;9.18;1.80;;;19.90;99.90;;;;;;5056244;28;20041;-77
2022/08/01 07:54:57;;;;;;;10.63;1.83;;;20.00;99.90;;;;;;5056099;28;20045;-77
2022/08/01 07:57:23;;;;;;;9.20;1.77;;;20.20;99.90;;;;;;5054682;28;20438;-77
2022/08/01 07:59:49;;;;;;;7.47;1.70;;;20.10;99.90;;;;;;5055826;28;20090;-78
2022/08/01 08:02:15;;;;;;;9.77;1.35;;;20.10;99.90;;;;;;5054544;28;20500;-77
2022/08/01 08:04:41;;;;;;;11.18;1.48;;;20.10;99.90;;;;;;5054360;28;20094;-77
2022/08/01 08:07:06;;;;;;;9.40;1.67;;;20.20;99.90;;;;;;5055364;28;20090;-78
2022/08/01 08:09:32;;;;;;;9.65;1.52;;;20.30;99.90;;;;;;5054586;28;20053;-77
2022/08/01 08:11:58;;;;;;;9.88;1.80;;;20.30;99.90;;;;;;5054369;28;20484;-77
2022/08/01 08:14:24;;;;;;;8.90;1.20;;;20.40;99.90;;;;;;5055831;28;20041;-77
2022/08/01 08:16:50;;;;;;;9.15;1.40;;;20.50;99.90;;;;;;5054882;28;20511;-77
2022/08/01 08:19:16;;;;;;;10.48;1.58;;;20.50;99.90;;;;;;5055484;28;20495;-77
2022/08/01 08:21:42;;;;;;;11.70;1.80;;;20.60;99.90;;;;;;5055189;28;20040;-87
2022/08/01 08:24:21;;;;;;;7.97;1.58;;;20.70;99.90;;;;;;5055479;28;20045;-90
2022/08/01 08:26:56;;;;;;;6.90;1.33;;;20.80;99.90;;;;;;5054960;28;20488;-84
2022/08/01 08:29:22;;;;;;;12.20;1.77;;;20.80;99.90;;;;;;5053406;28;20068;-76
2022/08/01 08:31:48;;;;;;;8.73;1.17;;;20.80;99.90;;;;;;5055169;28;20042;-77
2022/08/01 08:34:14;;;;;;;8.77;1.38;;;20.80;99.90;;;;;;5055370;28;20148;-78
2022/08/01 08:36:41;;;;;;;8.90;1.63;;;20.90;99.90;;;;;;5053188;28;20488;-78
2022/08/01 08:39:07;;;;;;;9.70;1.45;;;20.90;99.90;;;;;;5054762;28;20465;-78
2022/08/01 08:41:33;;;;;;;10.65;1.50;;;20.90;99.90;;;;;;5055217;28;20547;-78
2022/08/01 08:44:01;;;;;;;8.52;1.40;;;20.90;99.90;;;;;;5054941;28;20045;-77
2022/08/01 08:46:28;;;;;;;8.80;1.60;;;21.00;99.90;;;;;;5054169;28;20053;-77
2022/08/01 08:48:54;;;;;;;6.43;1.27;;;21.20;99.90;;;;;;5053643;28;20037;-76
2022/08/01 08:51:25;;;;;;;10.40;1.75;;;21.10;99.90;;;;;;5053465;28;20053;-77
2022/08/01 08:53:54;;;;;;;8.75;1.58;;;21.30;99.90;;;;;;5053481;28;20045;-77
2022/08/01 08:56:20;;;;;;;9.90;1.65;;;21.50;99.90;;;;;;5053209;28;20040;-77
2022/08/01 08:58:46;;;;;;;9.13;1.98;;;21.30;99.90;;;;;;5054527;28;20041;-77
2022/08/01 09:01:12;;;;;;;5.47;1.27;;;21.20;99.90;;;;;;5054800;28;20487;-77
2022/08/01 09:03:39;;;;;;;8.45;1.48;;;21.20;99.90;;;;;;5054417;28;20048;-78
2022/08/01 09:06:05;;;;;;;8.20;1.80;;;21.20;99.90;;;;;;5054157;28;20044;-77
2022/08/01 09:08:32;;;;;;;4.75;1.95;;;21.20;99.90;;;;;;5053092;28;20045;-77
2022/08/01 09:10:58;;;;;;;5.20;1.10;;;21.40;99.90;;;;;;5051184;28;20400;-77
2022/08/01 09:13:24;;;;;;;5.50;1.08;;;21.40;99.90;;;;;;5041125;28;20049;-76
2022/08/01 09:15:57;;;;;;;8.75;1.65;;;21.40;99.90;;;;;;5037552;28;20373;-76
2022/08/01 09:18:44;;;;;;;10.90;1.40;;;21.60;99.90;;;;;;5051821;28;20048;-77
2022/08/01 09:21:22;;;;;;;7.38;1.50;;;21.70;99.90;;;;;;5051786;28;20049;-76
2022/08/01 09:23:54;;;;;;;4.15;1.55;;;21.50;99.90;;;;;;5052523;28;20091;-76
2022/08/01 09:26:28;;;;;;;6.18;1.20;;;21.30;99.90;;;;;;5051142;28;20551;-77
2022/08/01 09:28:54;;;;;;;10.55;1.15;;;21.30;99.90;;;;;;5052033;28;20145;-77
2022/08/01 09:31:19;;;;;;;6.00;1.27;;;21.30;99.90;;;;;;5052514;28;20128;-77
2022/08/01 09:33:50;;;;;;;4.95;1.23;;;21.40;99.90;;;;;;5053215;28;20323;-76
2022/08/01 09:36:16;;;;;;;8.27;1.55;;;21.30;99.90;;;;;;5054083;28;20115;-77
2022/08/01 09:38:41;;;;;;;6.80;1.02;;;21.30;99.90;;;;;;5052642;28;20403;-76
2022/08/01 09:41:07;;;;;;;6.65;1.48;;;21.20;99.90;;;;;;5052968;28;20064;-76
2022/08/01 09:43:33;;;;;;;7.82;1.20;;;21.30;99.90;;;;;;5052501;28;20511;-76
2022/08/01 09:46:04;;;;;;;7.40;1.48;;;21.40;99.90;;;;;;5054124;28;20037;-76
2022/08/01 09:48:32;;;;;;;7.45;1.33;;;21.40;99.90;;;;;;5053714;28;20098;-77
2022/08/01 09:50:59;;;;;;;10.70;2.05;;;21.50;99.90;;;;;;5054087;28;20041;-76
2022/08/01 09:53:25;;;;;;;5.88;1.15;;;21.50;99.90;;;;;;5053979;28;20037;-76
2022/08/01 09:55:52;;;;;;;10.25;2.03;;;21.60;99.90;;;;;;5053819;28;20064;-76
2022/08/01 09:58:17;;;;;;;4.68;1.20;;;21.80;99.90;;;;;;5053504;28;20565;-76
2022/08/01 10:00:59;;;;;;;8.75;1.40;;;21.90;99.90;;;;;;5053746;28;20064;-75
2022/08/01 10:03:26;;;;;;;8.07;1.55;;;22.00;99.90;;;;;;5052544;28;20129;-76
2022/08/01 10:05:53;;;;;;;8.00;1.17;;;22.10;99.90;;;;;;5053459;28;20499;-76
2022/08/01 10:08:20;;;;;;;7.75;1.23;;;22.00;99.90;;;;;;5053787;28;20048;-76
2022/08/01 10:11:22;;;;;;;8.00;1.25;;;22.10;99.90;;;;;;5051989;28;20064;-76
2022/08/01 10:13:48;;;;;;;6.18;1.17;;;22.30;99.90;;;;;;4972692;28;20089;-76
2022/08/01 10:16:15;;;;;;;6.55;1.13;;;22.10;99.90;;;;;;5037583;28;20381;-76
2022/08/01 10:18:41;;;;;;;6.25;1.08;;;22.20;99.90;;;;;;5052080;28;20045;-76
2022/08/01 10:21:07;;;;;;;5.88;0.88;;;22.20;99.90;;;;;;5052234;28;20063;-76
2022/08/01 10:23:34;;;;;;;10.73;1.20;;;22.30;99.90;;;;;;5052245;28;20476;-76
2022/08/01 10:26:01;;;;;;;7.75;1.17;;;22.50;99.90;;;;;;5051888;28;20053;-76
2022/08/01 10:28:30;;;;;;;12.98;1.30;;;22.40;99.90;;;;;;5051822;28;20057;-76
2022/08/01 10:30:57;;;;;;;3.33;0.73;;;22.60;99.90;;;;;;5053344;28;20052;-76
2022/08/01 10:33:23;;;;;;;6.03;1.30;;;22.50;99.90;;;;;;5051586;28;20044;-76
2022/08/01 10:35:50;;;;;;;3.75;1.20;;;22.70;99.90;;;;;;5051230;28;20049;-78
2022/08/01 10:38:17;;;;;;;7.65;1.05;;;22.70;99.90;;;;;;5051215;28;20063;-77
2022/08/01 10:40:43;;;;;;;5.28;1.45;;;22.70;99.90;;;;;;5039865;28;20418;-76
2022/08/01 10:43:14;;;;;;;8.77;2.17;;;22.80;99.90;;;;;;5053193;28;20045;-76
2022/08/01 10:45:41;;;;;;;8.55;1.70;;;22.70;99.90;;;;;;5051529;28;20053;-76
2022/08/01 10:48:31;;;;;;;5.57;1.05;;;22.60;99.90;;;;;;5053051;28;20095;-76
2022/08/01 10:51:01;;;;;;;6.38;1.00;;;22.50;99.90;;;;;;5051617;28;20048;-76
2022/08/01 10:53:27;;;;;;;6.45;1.10;;;22.60;99.90;;;;;;5051599;28;20053;-76
2022/08/01 10:55:56;;;;;;;5.45;0.98;;;22.80;99.90;;;;;;5051596;28;20037;-76
2022/08/01 10:58:37;;;;;;;4.28;0.90;;;23.00;99.90;;;;;;5051848;28;20071;-76
2022/08/01 11:01:19;;;;;;;5.32;1.10;;;23.00;99.90;;;;;;5053182;28;20037;-77
2022/08/01 11:04:09;;;;;;;6.63;0.90;;;23.20;99.90;;;;;;5051857;28;20049;-77
2022/08/01 11:06:34;;;;;;;5.32;1.20;;;23.30;99.90;;;;;;5040163;28;20099;-77
2022/08/01 11:09:24;;;;;;;12.27;1.20;;;23.50;99.90;;;;;;5040549;28;20037;-77
2022/08/01 11:12:00;;;;;;;7.55;1.00;;;23.50;99.90;;;;;;5046570;28;20048;-76
2022/08/01 11:14:26;;;;;;;8.57;1.75;;;23.60;99.90;;;;;;5051755;28;20057;-76
2022/08/01 11:16:52;;;;;;;4.28;0.88;;;23.70;99.90;;;;;;5052943;28;20036;-76
2022/08/01 11:19:17;;;;;;;7.80;1.08;;;23.90;99.90;;;;;;5051533;28;20454;-76
2022/08/01 11:21:52;;;;;;;6.60;1.00;;;24.10;99.90;;;;;;5051701;28;20048;-76
2022/08/01 11:24:51;;;;;;;5.63;0.95;;;24.00;99.90;;;;;;5054975;28;20049;-76
2022/08/01 11:27:30;;;;;;;5.32;0.95;;;23.70;99.90;;;;;;5056370;28;20515;-76
2022/08/01 11:30:08;;;;;;;7.18;1.23;;;23.60;99.90;;;;;;5056451;28;20484;-76
2022/08/01 11:32:46;;;;;;;4.22;1.08;;;23.60;99.90;;;;;;5056234;28;20049;-76
2022/08/01 11:35:12;;;;;;;3.22;0.77;;;23.60;99.90;;;;;;5054652;28;20045;-76
2022/08/01 11:37:38;;;;;;;7.38;1.50;;;23.40;99.90;;;;;;5053836;28;20055;-76
2022/08/01 11:40:28;;;;;;;7.13;1.10;;;23.40;99.90;;;;;;5055024;28;20128;-76
2022/08/01 11:43:17;;;;;;;5.55;0.90;;;23.50;99.90;;;;;;5056362;28;20497;-76
2022/08/01 11:45:55;;;;;;;3.83;0.82;;;23.40;99.90;;;;;;5048045;28;20107;-76
2022/08/01 11:48:28;;;;;;;5.40;1.15;;;23.60;99.90;;;;;;5054754;28;20114;-76
2022/08/01 11:50:54;;;;;;;;;;;23.60;99.90;;;;;;5056618;28;20049;-76
2022/08/01 11:53:20;;;;;;;4.00;1.02;;;23.60;99.90;;;;;;5056370;28;19920;-76
2022/08/01 11:55:51;;;;;;;8.98;1.25;;;23.70;99.90;;;;;;5054726;28;20059;-76
2022/08/01 11:58:22;;;;;;;6.10;1.20;;;23.60;99.90;;;;;;5054705;28;20048;-75
2022/08/01 12:00:53;;;;;;;4.33;0.90;;;23.70;99.90;;;;;;5054708;28;20080;-76
2022/08/01 12:03:28;;;;;;;6.63;1.10;;;23.50;99.90;;;;;;5054772;28;20310;-76
2022/08/01 12:05:54;;;;;;;4.03;0.70;;;23.50;99.90;;;;;;5054546;28;20037;-76
2022/08/01 12:08:28;;;;;;;3.85;1.00;;;23.50;99.90;;;;;;5054737;28;20120;-76
2022/08/01 12:10:54;;;;;;;6.60;1.48;;;23.50;99.90;;;;;;5054741;28;20059;-88
2022/08/01 12:13:21;;;;;;;5.15;0.98;;;23.40;99.90;;;;;;5056425;28;20122;-86
2022/08/01 12:15:47;;;;;;;6.80;0.80;;;23.30;99.90;;;;;;5055263;28;20499;-88
2022/08/01 12:18:13;;;;;;;6.45;0.93;;;23.50;99.90;;;;;;5054357;28;20045;-89
2022/08/01 12:20:43;;;;;;;4.80;0.88;;;23.50;99.90;;;;;;5054510;28;20049;-86
2022/08/01 12:23:11;;;;;;;7.05;0.93;;;23.40;99.90;;;;;;5054529;28;20071;-84
2022/08/01 12:25:39;;;;;;;5.10;1.02;;;23.10;99.90;;;;;;5055698;28;20056;-87
2022/08/01 12:28:07;;;;;;;7.82;1.50;;;23.30;99.90;;;;;;5054396;28;20052;-86
2022/08/01 12:30:35;;;;;;;6.22;1.17;;;23.20;99.90;;;;;;5054157;28;20454;-86
2022/08/01 12:33:02;;;;;;;7.65;1.35;;;23.20;99.90;;;;;;5053900;28;20041;-87
2022/08/01 12:35:29;;;;;;;5.18;1.08;;;23.40;99.90;;;;;;5053573;28;20083;-84
2022/08/01 12:38:03;;;;;;;8.00;1.50;;;23.30;99.90;;;;;;5053756;28;20060;-87
2022/08/01 12:40:32;;;;;;;7.50;1.23;;;23.60;99.90;;;;;;5055364;28;20041;-83
2022/08/01 12:43:03;;;;;;;5.63;1.23;;;23.60;99.90;;;;;;5054096;28;20492;-85
2022/08/01 12:45:43;;;;;;;6.72;1.42;;;23.70;99.90;;;;;;5053432;28;20040;-90
2022/08/01 12:48:11;;;;;;;4.05;1.05;;;23.60;99.90;;;;;;5050577;28;20055;-86
2022/08/01 12:50:39;;;;;;;9.57;1.15;;;23.50;99.90;;;;;;5055177;28;20143;-87
2022/08/01 12:53:05;;;;;;;4.38;1.20;;;23.50;99.90;;;;;;5054963;28;20055;-91